sensor_id;sensor_type;location;lat;lon;timestamp;P1;durP1;ratioP1;P2;durP2;ratioP2
7110;SDS011;3597;42.650;23.386;2023-06-10T00:01:18;2.33;;;2.33;;
7110;SDS011;3597;42.650;23.386;2023-06-10T00:03:43;2.47;;;2.47;;
7110;SDS011;3597;42.650;23.386;2023-06-10T00:06:09;2.30;;;2.30;;
7110;SDS011;3597;42.650;23.386;2023-06-10T00:08:35;2.37;;;2.30;;
7110;SDS011;3597;42.650;23.386;2023-06-10T00:11:02;2.77;;;2.77;;
7110;SDS011;3597;42.650;23.386;2023-06-10T00:13:28;2.33;;;2.33;;
7110;SDS011;3597;42.650;23.386;2023-06-10T00:15:53;2.53;;;2.43;;
7110;SDS011;3597;42.650;23.386;2023-06-10T00:18:18;2.77;;;2.67;;
7110;SDS011;3597;42.650;23.386;2023-06-10T00:20:47;2.50;;;2.33;;
7110;SDS011;3597;42.650;23.386;2023-06-10T00:23:13;2.57;;;2.57;;
7110;SDS011;3597;42.650;23.386;2023-06-10T00:25:39;2.70;;;2.70;;
7110;SDS011;3597;42.650;23.386;2023-06-10T00:28:05;2.43;;;2.43;;
7110;SDS011;3597;42.650;23.386;2023-06-10T00:30:30;2.47;;;2.47;;
7110;SDS011;3597;42.650;23.386;2023-06-10T00:32:55;2.90;;;2.90;;
7110;SDS011;3597;42.650;23.386;2023-06-10T00:35:21;2.67;;;2.67;;
7110;SDS011;3597;42.650;23.386;2023-06-10T00:37:46;2.47;;;2.47;;
7110;SDS011;3597;42.650;23.386;2023-06-10T00:40:12;3.07;;;3.07;;
7110;SDS011;3597;42.650;23.386;2023-06-10T00:42:37;2.80;;;2.70;;
7110;SDS011;3597;42.650;23.386;2023-06-10T00:45:03;2.50;;;2.50;;
7110;SDS011;3597;42.650;23.386;2023-06-10T00:47:28;2.57;;;2.57;;
7110;SDS011;3597;42.650;23.386;2023-06-10T00:49:55;2.60;;;2.60;;
7110;SDS011;3597;42.650;23.386;2023-06-10T00:52:20;2.67;;;2.57;;
7110;SDS011;3597;42.650;23.386;2023-06-10T00:54:47;2.70;;;2.70;;
7110;SDS011;3597;42.650;23.386;2023-06-10T00:57:13;2.73;;;2.73;;
7110;SDS011;3597;42.650;23.386;2023-06-10T00:59:39;2.57;;;2.47;;
7110;SDS011;3597;42.650;23.386;2023-06-10T01:02:05;2.90;;;2.90;;
7110;SDS011;3597;42.650;23.386;2023-06-10T01:04:32;2.70;;;2.70;;
7110;SDS011;3597;42.650;23.386;2023-06-10T01:09:42;3.07;;;2.97;;
7110;SDS011;3597;42.650;23.386;2023-06-10T01:14:53;2.90;;;2.90;;
7110;SDS011;3597;42.650;23.386;2023-06-10T01:17:19;2.70;;;2.70;;
7110;SDS011;3597;42.650;23.386;2023-06-10T01:19:44;2.90;;;2.90;;
7110;SDS011;3597;42.650;23.386;2023-06-10T01:22:19;2.83;;;2.83;;
7110;SDS011;3597;42.650;23.386;2023-06-10T01:24:45;3.20;;;3.20;;
7110;SDS011;3597;42.650;23.386;2023-06-10T01:27:15;3.17;;;2.97;;
7110;SDS011;3597;42.650;23.386;2023-06-10T01:29:54;2.77;;;2.77;;
7110;SDS011;3597;42.650;23.386;2023-06-10T01:32:23;2.97;;;2.87;;
7110;SDS011;3597;42.650;23.386;2023-06-10T01:34:51;3.47;;;3.10;;
7110;SDS011;3597;42.650;23.386;2023-06-10T01:37:17;3.37;;;3.27;;
7110;SDS011;3597;42.650;23.386;2023-06-10T01:39:44;3.10;;;3.00;;
7110;SDS011;3597;42.650;23.386;2023-06-10T01:42:10;2.70;;;2.70;;
7110;SDS011;3597;42.650;23.386;2023-06-10T01:44:37;2.40;;;2.40;;
7110;SDS011;3597;42.650;23.386;2023-06-10T01:47:04;2.80;;;2.80;;
7110;SDS011;3597;42.650;23.386;2023-06-10T01:49:29;2.90;;;2.90;;
7110;SDS011;3597;42.650;23.386;2023-06-10T01:51:55;3.00;;;2.80;;
7110;SDS011;3597;42.650;23.386;2023-06-10T01:54:20;3.10;;;3.00;;
7110;SDS011;3597;42.650;23.386;2023-06-10T01:56:45;3.20;;;3.10;;
7110;SDS011;3597;42.650;23.386;2023-06-10T01:59:10;2.90;;;2.80;;
7110;SDS011;3597;42.650;23.386;2023-06-10T02:01:36;3.40;;;3.30;;
7110;SDS011;3597;42.650;23.386;2023-06-10T02:04:01;3.40;;;3.30;;
7110;SDS011;3597;42.650;23.386;2023-06-10T02:06:27;3.30;;;3.20;;
7110;SDS011;3597;42.650;23.386;2023-06-10T02:08:52;3.20;;;3.10;;
7110;SDS011;3597;42.650;23.386;2023-06-10T02:11:17;3.30;;;3.20;;
7110;SDS011;3597;42.650;23.386;2023-06-10T02:13:43;3.00;;;3.00;;
7110;SDS011;3597;42.650;23.386;2023-06-10T02:16:08;3.27;;;3.27;;
7110;SDS011;3597;42.650;23.386;2023-06-10T02:18:37;3.83;;;3.73;;
7110;SDS011;3597;42.650;23.386;2023-06-10T02:21:03;3.83;;;3.63;;
7110;SDS011;3597;42.650;23.386;2023-06-10T02:23:28;4.20;;;4.10;;
7110;SDS011;3597;42.650;23.386;2023-06-10T02:25:54;3.60;;;3.50;;
7110;SDS011;3597;42.650;23.386;2023-06-10T02:28:19;3.63;;;3.53;;
7110;SDS011;3597;42.650;23.386;2023-06-10T02:30:44;3.73;;;3.63;;
7110;SDS011;3597;42.650;23.386;2023-06-10T02:33:11;3.10;;;3.00;;
7110;SDS011;3597;42.650;23.386;2023-06-10T02:35:40;3.53;;;3.43;;
7110;SDS011;3597;42.650;23.386;2023-06-10T02:38:05;3.50;;;3.40;;
7110;SDS011;3597;42.650;23.386;2023-06-10T02:40:30;2.97;;;2.97;;
7110;SDS011;3597;42.650;23.386;2023-06-10T02:42:56;3.67;;;3.57;;
7110;SDS011;3597;42.650;23.386;2023-06-10T02:45:22;3.27;;;3.17;;
7110;SDS011;3597;42.650;23.386;2023-06-10T02:47:47;3.50;;;3.40;;
7110;SDS011;3597;42.650;23.386;2023-06-10T02:50:13;4.57;;;3.27;;
7110;SDS011;3597;42.650;23.386;2023-06-10T02:52:38;3.37;;;3.27;;
7110;SDS011;3597;42.650;23.386;2023-06-10T02:55:04;3.13;;;3.07;;
7110;SDS011;3597;42.650;23.386;2023-06-10T02:57:30;3.80;;;3.50;;
7110;SDS011;3597;42.650;23.386;2023-06-10T02:59:55;2.90;;;2.80;;
7110;SDS011;3597;42.650;23.386;2023-06-10T03:02:21;3.30;;;3.20;;
7110;SDS011;3597;42.650;23.386;2023-06-10T03:04:47;2.73;;;2.73;;
7110;SDS011;3597;42.650;23.386;2023-06-10T03:07:12;3.07;;;2.97;;
7110;SDS011;3597;42.650;23.386;2023-06-10T03:09:39;3.70;;;3.50;;
7110;SDS011;3597;42.650;23.386;2023-06-10T03:12:04;3.27;;;3.13;;
7110;SDS011;3597;42.650;23.386;2023-06-10T03:14:31;3.03;;;2.93;;
7110;SDS011;3597;42.650;23.386;2023-06-10T03:16:56;2.93;;;2.83;;
7110;SDS011;3597;42.650;23.386;2023-06-10T03:19:21;2.97;;;2.87;;
7110;SDS011;3597;42.650;23.386;2023-06-10T03:21:49;3.30;;;3.10;;
7110;SDS011;3597;42.650;23.386;2023-06-10T03:24:15;3.10;;;3.00;;
7110;SDS011;3597;42.650;23.386;2023-06-10T03:26:41;2.67;;;2.67;;
7110;SDS011;3597;42.650;23.386;2023-06-10T03:29:06;2.80;;;2.60;;
7110;SDS011;3597;42.650;23.386;2023-06-10T03:31:32;3.10;;;2.90;;
7110;SDS011;3597;42.650;23.386;2023-06-10T03:33:57;2.50;;;2.40;;
7110;SDS011;3597;42.650;23.386;2023-06-10T03:36:23;2.90;;;2.70;;
7110;SDS011;3597;42.650;23.386;2023-06-10T03:38:49;2.77;;;2.67;;
7110;SDS011;3597;42.650;23.386;2023-06-10T03:41:16;3.13;;;3.03;;
7110;SDS011;3597;42.650;23.386;2023-06-10T03:43:42;4.00;;;2.90;;
7110;SDS011;3597;42.650;23.386;2023-06-10T03:46:09;2.93;;;2.87;;
7110;SDS011;3597;42.650;23.386;2023-06-10T03:48:35;3.13;;;2.93;;
7110;SDS011;3597;42.650;23.386;2023-06-10T03:51:01;3.30;;;3.20;;
7110;SDS011;3597;42.650;23.386;2023-06-10T03:53:26;3.43;;;3.33;;
7110;SDS011;3597;42.650;23.386;2023-06-10T03:55:52;3.40;;;3.30;;
7110;SDS011;3597;42.650;23.386;2023-06-10T03:58:17;3.40;;;3.20;;
7110;SDS011;3597;42.650;23.386;2023-06-10T04:00:43;3.40;;;3.30;;
7110;SDS011;3597;42.650;23.386;2023-06-10T04:03:08;3.50;;;3.40;;
7110;SDS011;3597;42.650;23.386;2023-06-10T04:05:34;4.40;;;4.20;;
7110;SDS011;3597;42.650;23.386;2023-06-10T04:08:00;4.50;;;4.30;;
7110;SDS011;3597;42.650;23.386;2023-06-10T04:10:26;4.00;;;3.90;;
7110;SDS011;3597;42.650;23.386;2023-06-10T04:12:52;4.10;;;3.90;;
7110;SDS011;3597;42.650;23.386;2023-06-10T04:15:17;4.23;;;4.03;;
7110;SDS011;3597;42.650;23.386;2023-06-10T04:17:42;4.10;;;3.80;;
7110;SDS011;3597;42.650;23.386;2023-06-10T04:20:08;4.17;;;3.87;;
7110;SDS011;3597;42.650;23.386;2023-06-10T04:22:34;3.40;;;3.30;;
7110;SDS011;3597;42.650;23.386;2023-06-10T04:25:01;3.67;;;3.57;;
7110;SDS011;3597;42.650;23.386;2023-06-10T04:27:27;4.00;;;3.90;;
7110;SDS011;3597;42.650;23.386;2023-06-10T04:29:52;4.67;;;4.47;;
7110;SDS011;3597;42.650;23.386;2023-06-10T04:32:17;3.70;;;3.50;;
7110;SDS011;3597;42.650;23.386;2023-06-10T04:34:43;3.50;;;3.40;;
7110;SDS011;3597;42.650;23.386;2023-06-10T04:37:08;3.50;;;3.40;;
7110;SDS011;3597;42.650;23.386;2023-06-10T04:39:34;3.23;;;3.13;;
7110;SDS011;3597;42.650;23.386;2023-06-10T04:41:59;2.90;;;2.80;;
7110;SDS011;3597;42.650;23.386;2023-06-10T04:44:25;3.57;;;3.37;;
7110;SDS011;3597;42.650;23.386;2023-06-10T04:46:51;3.53;;;3.40;;
7110;SDS011;3597;42.650;23.386;2023-06-10T04:49:16;3.50;;;3.30;;
7110;SDS011;3597;42.650;23.386;2023-06-10T04:51:41;3.40;;;3.30;;
7110;SDS011;3597;42.650;23.386;2023-06-10T04:54:07;3.17;;;3.10;;
7110;SDS011;3597;42.650;23.386;2023-06-10T04:56:32;3.40;;;3.20;;
7110;SDS011;3597;42.650;23.386;2023-06-10T04:58:58;3.10;;;3.10;;
7110;SDS011;3597;42.650;23.386;2023-06-10T05:01:24;3.13;;;3.03;;
7110;SDS011;3597;42.650;23.386;2023-06-10T05:03:49;3.30;;;3.20;;
7110;SDS011;3597;42.650;23.386;2023-06-10T05:06:15;3.70;;;3.60;;
7110;SDS011;3597;42.650;23.386;2023-06-10T05:08:40;3.33;;;3.23;;
7110;SDS011;3597;42.650;23.386;2023-06-10T05:11:06;3.57;;;3.47;;
7110;SDS011;3597;42.650;23.386;2023-06-10T05:13:31;3.77;;;3.67;;
7110;SDS011;3597;42.650;23.386;2023-06-10T05:15:57;3.37;;;3.27;;
7110;SDS011;3597;42.650;23.386;2023-06-10T05:18:23;4.03;;;3.93;;
7110;SDS011;3597;42.650;23.386;2023-06-10T05:20:48;4.07;;;3.77;;
7110;SDS011;3597;42.650;23.386;2023-06-10T05:23:14;3.80;;;3.70;;
7110;SDS011;3597;42.650;23.386;2023-06-10T05:25:39;4.07;;;3.57;;
7110;SDS011;3597;42.650;23.386;2023-06-10T05:28:06;3.30;;;3.30;;
7110;SDS011;3597;42.650;23.386;2023-06-10T05:30:34;5.57;;;3.50;;
7110;SDS011;3597;42.650;23.386;2023-06-10T05:33:00;3.50;;;3.40;;
7110;SDS011;3597;42.650;23.386;2023-06-10T05:35:25;3.93;;;3.83;;
7110;SDS011;3597;42.650;23.386;2023-06-10T05:37:51;4.50;;;4.40;;
7110;SDS011;3597;42.650;23.386;2023-06-10T05:40:16;5.17;;;4.93;;
7110;SDS011;3597;42.650;23.386;2023-06-10T05:42:41;6.20;;;6.00;;
7110;SDS011;3597;42.650;23.386;2023-06-10T05:45:07;7.00;;;6.80;;
7110;SDS011;3597;42.650;23.386;2023-06-10T05:47:33;9.20;;;9.00;;
7110;SDS011;3597;42.650;23.386;2023-06-10T05:49:58;10.97;;;10.57;;
7110;SDS011;3597;42.650;23.386;2023-06-10T05:52:23;15.77;;;15.27;;
7110;SDS011;3597;42.650;23.386;2023-06-10T05:54:49;14.47;;;13.97;;
7110;SDS011;3597;42.650;23.386;2023-06-10T05:57:15;12.47;;;11.87;;
7110;SDS011;3597;42.650;23.386;2023-06-10T05:59:40;11.47;;;11.07;;
7110;SDS011;3597;42.650;23.386;2023-06-10T06:02:06;8.83;;;8.53;;
7110;SDS011;3597;42.650;23.386;2023-06-10T06:04:31;7.47;;;7.27;;
7110;SDS011;3597;42.650;23.386;2023-06-10T06:06:57;5.60;;;5.40;;
7110;SDS011;3597;42.650;23.386;2023-06-10T06:09:22;5.40;;;5.27;;
7110;SDS011;3597;42.650;23.386;2023-06-10T06:11:47;4.67;;;4.47;;
7110;SDS011;3597;42.650;23.386;2023-06-10T06:14:13;4.50;;;4.30;;
7110;SDS011;3597;42.650;23.386;2023-06-10T06:16:38;4.10;;;3.90;;
7110;SDS011;3597;42.650;23.386;2023-06-10T06:19:04;4.37;;;4.20;;
7110;SDS011;3597;42.650;23.386;2023-06-10T06:21:29;4.23;;;4.03;;
7110;SDS011;3597;42.650;23.386;2023-06-10T06:23:54;4.30;;;4.10;;
7110;SDS011;3597;42.650;23.386;2023-06-10T06:26:20;4.70;;;4.50;;
7110;SDS011;3597;42.650;23.386;2023-06-10T06:28:45;4.47;;;4.17;;
7110;SDS011;3597;42.650;23.386;2023-06-10T06:31:11;4.10;;;3.90;;
7110;SDS011;3597;42.650;23.386;2023-06-10T06:33:36;4.50;;;4.40;;
7110;SDS011;3597;42.650;23.386;2023-06-10T06:36:02;4.53;;;4.23;;
7110;SDS011;3597;42.650;23.386;2023-06-10T06:38:27;4.37;;;4.10;;
7110;SDS011;3597;42.650;23.386;2023-06-10T06:40:53;4.77;;;4.57;;
7110;SDS011;3597;42.650;23.386;2023-06-10T06:43:19;4.37;;;4.20;;
7110;SDS011;3597;42.650;23.386;2023-06-10T06:45:44;4.37;;;4.20;;
7110;SDS011;3597;42.650;23.386;2023-06-10T06:48:12;4.57;;;4.27;;
7110;SDS011;3597;42.650;23.386;2023-06-10T06:50:38;3.90;;;3.80;;
7110;SDS011;3597;42.650;23.386;2023-06-10T06:53:03;4.33;;;4.13;;
7110;SDS011;3597;42.650;23.386;2023-06-10T06:55:29;4.30;;;4.10;;
7110;SDS011;3597;42.650;23.386;2023-06-10T06:57:55;4.23;;;4.13;;
7110;SDS011;3597;42.650;23.386;2023-06-10T07:00:20;4.00;;;3.90;;
7110;SDS011;3597;42.650;23.386;2023-06-10T07:02:46;4.40;;;4.00;;
7110;SDS011;3597;42.650;23.386;2023-06-10T07:05:11;3.60;;;3.40;;
7110;SDS011;3597;42.650;23.386;2023-06-10T07:07:36;3.27;;;3.17;;
7110;SDS011;3597;42.650;23.386;2023-06-10T07:10:02;3.70;;;3.53;;
7110;SDS011;3597;42.650;23.386;2023-06-10T07:12:27;4.13;;;4.03;;
7110;SDS011;3597;42.650;23.386;2023-06-10T07:14:53;4.00;;;3.90;;
7110;SDS011;3597;42.650;23.386;2023-06-10T07:17:18;3.30;;;3.20;;
7110;SDS011;3597;42.650;23.386;2023-06-10T07:19:44;3.97;;;3.87;;
7110;SDS011;3597;42.650;23.386;2023-06-10T07:22:10;3.10;;;3.03;;
7110;SDS011;3597;42.650;23.386;2023-06-10T07:24:35;2.57;;;2.57;;
7110;SDS011;3597;42.650;23.386;2023-06-10T07:27:01;3.43;;;3.33;;
7110;SDS011;3597;42.650;23.386;2023-06-10T07:29:26;8.77;;;8.57;;
7110;SDS011;3597;42.650;23.386;2023-06-10T07:31:51;3.83;;;3.27;;
7110;SDS011;3597;42.650;23.386;2023-06-10T07:34:18;2.60;;;2.60;;
7110;SDS011;3597;42.650;23.386;2023-06-10T07:36:43;3.47;;;3.37;;
7110;SDS011;3597;42.650;23.386;2023-06-10T07:39:09;2.90;;;2.80;;
7110;SDS011;3597;42.650;23.386;2023-06-10T07:41:35;2.60;;;2.50;;
7110;SDS011;3597;42.650;23.386;2023-06-10T07:44:00;2.30;;;2.20;;
7110;SDS011;3597;42.650;23.386;2023-06-10T07:46:25;3.83;;;2.90;;
7110;SDS011;3597;42.650;23.386;2023-06-10T07:48:52;2.40;;;2.30;;
7110;SDS011;3597;42.650;23.386;2023-06-10T07:51:18;2.40;;;2.30;;
7110;SDS011;3597;42.650;23.386;2023-06-10T07:53:44;2.27;;;2.27;;
7110;SDS011;3597;42.650;23.386;2023-06-10T07:56:09;4.27;;;2.40;;
7110;SDS011;3597;42.650;23.386;2023-06-10T07:58:35;2.13;;;2.13;;
7110;SDS011;3597;42.650;23.386;2023-06-10T08:01:00;2.17;;;2.17;;
7110;SDS011;3597;42.650;23.386;2023-06-10T08:03:25;2.50;;;2.50;;
7110;SDS011;3597;42.650;23.386;2023-06-10T08:05:51;2.47;;;2.47;;
7110;SDS011;3597;42.650;23.386;2023-06-10T08:08:16;2.30;;;2.30;;
7110;SDS011;3597;42.650;23.386;2023-06-10T08:10:41;2.20;;;2.10;;
7110;SDS011;3597;42.650;23.386;2023-06-10T08:13:07;2.20;;;2.20;;
7110;SDS011;3597;42.650;23.386;2023-06-10T08:15:33;2.10;;;2.10;;
7110;SDS011;3597;42.650;23.386;2023-06-10T08:17:58;2.38;;;2.22;;
7110;SDS011;3597;42.650;23.386;2023-06-10T08:20:24;2.17;;;2.17;;
7110;SDS011;3597;42.650;23.386;2023-06-10T08:22:49;2.40;;;2.40;;
7110;SDS011;3597;42.650;23.386;2023-06-10T08:25:15;2.40;;;2.40;;
7110;SDS011;3597;42.650;23.386;2023-06-10T08:27:40;2.22;;;2.22;;
7110;SDS011;3597;42.650;23.386;2023-06-10T08:30:06;1.90;;;1.80;;
7110;SDS011;3597;42.650;23.386;2023-06-10T08:32:31;1.98;;;1.98;;
7110;SDS011;3597;42.650;23.386;2023-06-10T08:34:57;1.85;;;1.85;;
7110;SDS011;3597;42.650;23.386;2023-06-10T08:37:23;2.70;;;2.60;;
7110;SDS011;3597;42.650;23.386;2023-06-10T08:39:49;1.90;;;1.90;;
7110;SDS011;3597;42.650;23.386;2023-06-10T08:44:46;1.65;;;1.60;;
7110;SDS011;3597;42.650;23.386;2023-06-10T08:47:13;1.65;;;1.55;;
7110;SDS011;3597;42.650;23.386;2023-06-10T08:49:45;1.60;;;1.60;;
7110;SDS011;3597;42.650;23.386;2023-06-10T08:52:15;1.60;;;1.60;;
7110;SDS011;3597;42.650;23.386;2023-06-10T08:54:42;2.00;;;1.90;;
7110;SDS011;3597;42.650;23.386;2023-06-10T08:57:11;1.55;;;1.55;;
7110;SDS011;3597;42.650;23.386;2023-06-10T08:59:37;1.52;;;1.52;;
7110;SDS011;3597;42.650;23.386;2023-06-10T09:02:03;1.65;;;1.65;;
7110;SDS011;3597;42.650;23.386;2023-06-10T09:04:29;1.90;;;1.80;;
7110;SDS011;3597;42.650;23.386;2023-06-10T09:06:55;1.60;;;1.60;;
7110;SDS011;3597;42.650;23.386;2023-06-10T09:09:21;1.50;;;1.50;;
7110;SDS011;3597;42.650;23.386;2023-06-10T09:11:47;1.60;;;1.60;;
7110;SDS011;3597;42.650;23.386;2023-06-10T09:14:13;1.35;;;1.35;;
7110;SDS011;3597;42.650;23.386;2023-06-10T09:16:38;1.45;;;1.45;;
7110;SDS011;3597;42.650;23.386;2023-06-10T09:19:04;1.65;;;1.65;;
7110;SDS011;3597;42.650;23.386;2023-06-10T09:21:33;1.70;;;1.70;;
7110;SDS011;3597;42.650;23.386;2023-06-10T09:23:59;3.83;;;1.98;;
7110;SDS011;3597;42.650;23.386;2023-06-10T09:26:27;2.17;;;1.77;;
7110;SDS011;3597;42.650;23.386;2023-06-10T09:28:57;1.60;;;1.60;;
7110;SDS011;3597;42.650;23.386;2023-06-10T09:31:27;1.77;;;1.70;;
7110;SDS011;3597;42.650;23.386;2023-06-10T09:33:52;1.67;;;1.67;;
7110;SDS011;3597;42.650;23.386;2023-06-10T09:36:21;1.60;;;1.60;;
7110;SDS011;3597;42.650;23.386;2023-06-10T09:38:48;2.78;;;1.70;;
7110;SDS011;3597;42.650;23.386;2023-06-10T09:41:14;1.90;;;1.80;;
7110;SDS011;3597;42.650;23.386;2023-06-10T09:43:41;1.60;;;1.60;;
7110;SDS011;3597;42.650;23.386;2023-06-10T09:46:17;1.60;;;1.60;;
7110;SDS011;3597;42.650;23.386;2023-06-10T09:48:44;1.60;;;1.60;;
7110;SDS011;3597;42.650;23.386;2023-06-10T09:51:10;1.75;;;1.65;;
7110;SDS011;3597;42.650;23.386;2023-06-10T09:53:36;1.98;;;1.88;;
7110;SDS011;3597;42.650;23.386;2023-06-10T09:56:01;1.77;;;1.77;;
7110;SDS011;3597;42.650;23.386;2023-06-10T09:58:36;2.30;;;2.20;;
7110;SDS011;3597;42.650;23.386;2023-06-10T10:01:08;1.63;;;1.63;;
7110;SDS011;3597;42.650;23.386;2023-06-10T10:03:42;1.50;;;1.50;;
7110;SDS011;3597;42.650;23.386;2023-06-10T10:06:17;1.80;;;1.80;;
7110;SDS011;3597;42.650;23.386;2023-06-10T10:08:47;1.70;;;1.60;;
7110;SDS011;3597;42.650;23.386;2023-06-10T10:11:17;1.63;;;1.63;;
7110;SDS011;3597;42.650;23.386;2023-06-10T10:13:44;1.73;;;1.73;;
7110;SDS011;3597;42.650;23.386;2023-06-10T10:16:11;1.83;;;1.83;;
7110;SDS011;3597;42.650;23.386;2023-06-10T10:18:41;1.85;;;1.80;;
7110;SDS011;3597;42.650;23.386;2023-06-10T10:21:11;3.35;;;1.80;;
7110;SDS011;3597;42.650;23.386;2023-06-10T10:23:40;1.70;;;1.70;;
7110;SDS011;3597;42.650;23.386;2023-06-10T10:26:27;1.90;;;1.80;;
7110;SDS011;3597;42.650;23.386;2023-06-10T10:28:58;1.67;;;1.67;;
7110;SDS011;3597;42.650;23.386;2023-06-10T10:31:25;1.50;;;1.50;;
7110;SDS011;3597;42.650;23.386;2023-06-10T10:33:54;1.35;;;1.35;;
7110;SDS011;3597;42.650;23.386;2023-06-10T10:36:21;1.48;;;1.33;;
7110;SDS011;3597;42.650;23.386;2023-06-10T10:38:47;1.50;;;1.50;;
7110;SDS011;3597;42.650;23.386;2023-06-10T10:41:14;1.58;;;1.48;;
7110;SDS011;3597;42.650;23.386;2023-06-10T10:43:40;1.42;;;1.42;;
7110;SDS011;3597;42.650;23.386;2023-06-10T10:46:11;1.30;;;1.30;;
7110;SDS011;3597;42.650;23.386;2023-06-10T10:48:40;1.52;;;1.52;;
7110;SDS011;3597;42.650;23.386;2023-06-10T10:51:06;1.35;;;1.35;;
7110;SDS011;3597;42.650;23.386;2023-06-10T10:53:32;1.63;;;1.63;;
7110;SDS011;3597;42.650;23.386;2023-06-10T10:56:04;1.40;;;1.40;;
7110;SDS011;3597;42.650;23.386;2023-06-10T10:58:32;1.30;;;1.30;;
7110;SDS011;3597;42.650;23.386;2023-06-10T11:00:57;1.38;;;1.35;;
7110;SDS011;3597;42.650;23.386;2023-06-10T11:03:27;1.45;;;1.45;;
7110;SDS011;3597;42.650;23.386;2023-06-10T11:05:53;1.50;;;1.50;;
7110;SDS011;3597;42.650;23.386;2023-06-10T11:10:53;1.50;;;1.50;;
7110;SDS011;3597;42.650;23.386;2023-06-10T11:13:19;1.60;;;1.60;;
7110;SDS011;3597;42.650;23.386;2023-06-10T11:20:44;1.88;;;1.77;;
7110;SDS011;3597;42.650;23.386;2023-06-10T11:25:51;1.50;;;1.50;;
7110;SDS011;3597;42.650;23.386;2023-06-10T11:28:35;1.50;;;1.50;;
7110;SDS011;3597;42.650;23.386;2023-06-10T11:31:00;1.55;;;1.55;;
7110;SDS011;3597;42.650;23.386;2023-06-10T11:33:25;1.60;;;1.60;;
7110;SDS011;3597;42.650;23.386;2023-06-10T11:35:51;1.55;;;1.45;;
7110;SDS011;3597;42.650;23.386;2023-06-10T11:38:16;2.38;;;2.38;;
7110;SDS011;3597;42.650;23.386;2023-06-10T11:40:50;2.60;;;2.50;;
7110;SDS011;3597;42.650;23.386;2023-06-10T11:43:18;2.70;;;2.60;;
7110;SDS011;3597;42.650;23.386;2023-06-10T11:45:44;2.78;;;2.78;;
7110;SDS011;3597;42.650;23.386;2023-06-10T11:48:10;2.53;;;2.42;;
7110;SDS011;3597;42.650;23.386;2023-06-10T11:50:36;2.13;;;2.08;;
7110;SDS011;3597;42.650;23.386;2023-06-10T11:53:02;2.03;;;2.03;;
7110;SDS011;3597;42.650;23.386;2023-06-10T11:55:46;2.67;;;2.58;;
7110;SDS011;3597;42.650;23.386;2023-06-10T12:00:48;2.22;;;2.22;;
7110;SDS011;3597;42.650;23.386;2023-06-10T12:03:15;2.00;;;2.00;;
7110;SDS011;3597;42.650;23.386;2023-06-10T12:05:53;1.80;;;1.80;;
7110;SDS011;3597;42.650;23.386;2023-06-10T12:08:26;1.83;;;1.83;;
7110;SDS011;3597;42.650;23.386;2023-06-10T12:10:52;1.77;;;1.77;;
7110;SDS011;3597;42.650;23.386;2023-06-10T12:13:18;1.65;;;1.65;;
7110;SDS011;3597;42.650;23.386;2023-06-10T12:15:43;1.70;;;1.70;;
7110;SDS011;3597;42.650;23.386;2023-06-10T12:18:30;1.80;;;1.80;;
7110;SDS011;3597;42.650;23.386;2023-06-10T12:20:55;2.00;;;2.00;;
7110;SDS011;3597;42.650;23.386;2023-06-10T12:23:20;1.73;;;1.73;;
7110;SDS011;3597;42.650;23.386;2023-06-10T12:25:50;2.03;;;1.90;;
7110;SDS011;3597;42.650;23.386;2023-06-10T12:28:16;1.85;;;1.85;;
7110;SDS011;3597;42.650;23.386;2023-06-10T12:30:44;1.80;;;1.80;;
7110;SDS011;3597;42.650;23.386;2023-06-10T12:33:16;1.77;;;1.77;;
7110;SDS011;3597;42.650;23.386;2023-06-10T12:35:48;1.95;;;1.92;;
7110;SDS011;3597;42.650;23.386;2023-06-10T12:38:18;1.55;;;1.55;;
7110;SDS011;3597;42.650;23.386;2023-06-10T12:40:47;1.83;;;1.80;;
7110;SDS011;3597;42.650;23.386;2023-06-10T12:43:12;1.60;;;1.60;;
7110;SDS011;3597;42.650;23.386;2023-06-10T12:45:39;1.73;;;1.73;;
7110;SDS011;3597;42.650;23.386;2023-06-10T12:48:06;1.50;;;1.50;;
7110;SDS011;3597;42.650;23.386;2023-06-10T12:50:34;1.70;;;1.70;;
7110;SDS011;3597;42.650;23.386;2023-06-10T12:53:02;1.77;;;1.77;;
7110;SDS011;3597;42.650;23.386;2023-06-10T12:55:28;1.90;;;1.90;;
7110;SDS011;3597;42.650;23.386;2023-06-10T12:57:53;1.92;;;1.83;;
7110;SDS011;3597;42.650;23.386;2023-06-10T13:00:20;1.52;;;1.52;;
7110;SDS011;3597;42.650;23.386;2023-06-10T13:02:45;1.70;;;1.70;;
7110;SDS011;3597;42.650;23.386;2023-06-10T13:05:11;1.88;;;1.88;;
7110;SDS011;3597;42.650;23.386;2023-06-10T13:07:36;1.60;;;1.60;;
7110;SDS011;3597;42.650;23.386;2023-06-10T13:10:02;1.42;;;1.42;;
7110;SDS011;3597;42.650;23.386;2023-06-10T13:12:27;1.73;;;1.73;;
7110;SDS011;3597;42.650;23.386;2023-06-10T13:14:54;1.60;;;1.60;;
7110;SDS011;3597;42.650;23.386;2023-06-10T13:17:20;1.90;;;1.90;;
7110;SDS011;3597;42.650;23.386;2023-06-10T13:19:45;2.00;;;2.00;;
7110;SDS011;3597;42.650;23.386;2023-06-10T13:22:11;1.77;;;1.65;;
7110;SDS011;3597;42.650;23.386;2023-06-10T13:24:38;1.60;;;1.60;;
7110;SDS011;3597;42.650;23.386;2023-06-10T13:27:04;1.50;;;1.50;;
7110;SDS011;3597;42.650;23.386;2023-06-10T13:29:31;1.73;;;1.73;;
7110;SDS011;3597;42.650;23.386;2023-06-10T13:31:57;2.05;;;1.65;;
7110;SDS011;3597;42.650;23.386;2023-06-10T13:34:22;1.90;;;1.80;;
7110;SDS011;3597;42.650;23.386;2023-06-10T13:36:47;1.73;;;1.73;;
7110;SDS011;3597;42.650;23.386;2023-06-10T13:39:13;1.70;;;1.70;;
7110;SDS011;3597;42.650;23.386;2023-06-10T13:41:40;1.80;;;1.80;;
7110;SDS011;3597;42.650;23.386;2023-06-10T13:44:06;1.77;;;1.77;;
7110;SDS011;3597;42.650;23.386;2023-06-10T13:46:31;1.90;;;1.90;;
7110;SDS011;3597;42.650;23.386;2023-06-10T13:48:57;2.50;;;2.43;;
7110;SDS011;3597;42.650;23.386;2023-06-10T13:51:22;2.50;;;2.33;;
7110;SDS011;3597;42.650;23.386;2023-06-10T13:53:47;2.17;;;2.17;;
7110;SDS011;3597;42.650;23.386;2023-06-10T13:56:13;2.07;;;2.07;;
7110;SDS011;3597;42.650;23.386;2023-06-10T13:58:39;2.13;;;2.03;;
7110;SDS011;3597;42.650;23.386;2023-06-10T14:01:06;2.07;;;2.00;;
7110;SDS011;3597;42.650;23.386;2023-06-10T14:03:31;2.10;;;2.10;;
7110;SDS011;3597;42.650;23.386;2023-06-10T14:05:57;1.90;;;1.90;;
7110;SDS011;3597;42.650;23.386;2023-06-10T14:08:22;2.30;;;2.20;;
7110;SDS011;3597;42.650;23.386;2023-06-10T14:10:48;2.10;;;2.10;;
7110;SDS011;3597;42.650;23.386;2023-06-10T14:13:15;2.50;;;2.47;;
7110;SDS011;3597;42.650;23.386;2023-06-10T14:15:41;1.73;;;1.73;;
7110;SDS011;3597;42.650;23.386;2023-06-10T14:18:06;2.73;;;2.00;;
7110;SDS011;3597;42.650;23.386;2023-06-10T14:20:32;2.33;;;2.23;;
7110;SDS011;3597;42.650;23.386;2023-06-10T14:22:57;2.30;;;2.20;;
7110;SDS011;3597;42.650;23.386;2023-06-10T14:25:23;2.00;;;2.00;;
7110;SDS011;3597;42.650;23.386;2023-06-10T14:27:49;2.43;;;2.43;;
7110;SDS011;3597;42.650;23.386;2023-06-10T14:30:14;2.60;;;2.50;;
7110;SDS011;3597;42.650;23.386;2023-06-10T14:32:40;2.50;;;2.40;;
7110;SDS011;3597;42.650;23.386;2023-06-10T14:35:06;2.40;;;2.40;;
7110;SDS011;3597;42.650;23.386;2023-06-10T14:37:31;2.50;;;2.40;;
7110;SDS011;3597;42.650;23.386;2023-06-10T14:39:57;2.13;;;2.13;;
7110;SDS011;3597;42.650;23.386;2023-06-10T14:42:22;2.37;;;2.37;;
7110;SDS011;3597;42.650;23.386;2023-06-10T14:44:48;2.27;;;2.27;;
7110;SDS011;3597;42.650;23.386;2023-06-10T14:47:14;2.17;;;2.13;;
7110;SDS011;3597;42.650;23.386;2023-06-10T14:49:39;2.20;;;2.20;;
7110;SDS011;3597;42.650;23.386;2023-06-10T14:52:07;2.20;;;2.20;;
7110;SDS011;3597;42.650;23.386;2023-06-10T14:54:33;2.87;;;2.87;;
7110;SDS011;3597;42.650;23.386;2023-06-10T14:56:58;2.30;;;2.30;;
7110;SDS011;3597;42.650;23.386;2023-06-10T14:59:23;2.60;;;2.50;;
7110;SDS011;3597;42.650;23.386;2023-06-10T15:01:49;2.70;;;2.70;;
7110;SDS011;3597;42.650;23.386;2023-06-10T15:04:14;2.97;;;2.77;;
7110;SDS011;3597;42.650;23.386;2023-06-10T15:06:39;2.33;;;2.33;;
7110;SDS011;3597;42.650;23.386;2023-06-10T15:09:06;2.47;;;2.47;;
7110;SDS011;3597;42.650;23.386;2023-06-10T15:11:32;2.50;;;2.50;;
7110;SDS011;3597;42.650;23.386;2023-06-10T15:13:57;3.33;;;2.40;;
7110;SDS011;3597;42.650;23.386;2023-06-10T15:16:22;2.50;;;2.50;;